sensor_id;sensor_type;location;lat;lon;timestamp;P1;durP1;ratioP1;P2;durP2;ratioP2
36787;SDS011;22738;45.560;9.434;2022-09-09T00:00:15;15.20;;;9.90;;
36787;SDS011;22738;45.560;9.434;2022-09-09T00:13:59;18.75;;;10.98;;
36787;SDS011;22738;45.560;9.434;2022-09-09T00:20:48;18.92;;;10.60;;
36787;SDS011;22738;45.560;9.434;2022-09-09T00:27:40;19.15;;;10.52;;
36787;SDS011;22738;45.560;9.434;2022-09-09T00:34:26;15.82;;;9.88;;
36787;SDS011;22738;45.560;9.434;2022-09-09T00:41:14;17.38;;;10.32;;
36787;SDS011;22738;45.560;9.434;2022-09-09T00:48:09;15.75;;;10.38;;
36787;SDS011;22738;45.560;9.434;2022-09-09T00:55:07;17.83;;;10.35;;
36787;SDS011;22738;45.560;9.434;2022-09-09T01:01:56;19.73;;;11.43;;
36787;SDS011;22738;45.560;9.434;2022-09-09T01:15:31;18.83;;;11.77;;
36787;SDS011;22738;45.560;9.434;2022-09-09T01:22:20;15.20;;;10.75;;
36787;SDS011;22738;45.560;9.434;2022-09-09T01:29:21;20.65;;;11.20;;
36787;SDS011;22738;45.560;9.434;2022-09-09T01:43:03;17.23;;;9.93;;
36787;SDS011;22738;45.560;9.434;2022-09-09T01:49:45;18.10;;;11.77;;
36787;SDS011;22738;45.560;9.434;2022-09-09T02:03:35;15.40;;;9.45;;
36787;SDS011;22738;45.560;9.434;2022-09-09T02:10:33;17.90;;;9.95;;
36787;SDS011;22738;45.560;9.434;2022-09-09T02:17:30;14.30;;;8.75;;
36787;SDS011;22738;45.560;9.434;2022-09-09T02:24:21;11.50;;;7.25;;
36787;SDS011;22738;45.560;9.434;2022-09-09T02:31:12;10.38;;;6.53;;
36787;SDS011;22738;45.560;9.434;2022-09-09T02:37:59;11.20;;;6.55;;
36787;SDS011;22738;45.560;9.434;2022-09-09T02:44:45;14.15;;;6.57;;
36787;SDS011;22738;45.560;9.434;2022-09-09T02:58:30;8.98;;;5.65;;
36787;SDS011;22738;45.560;9.434;2022-09-09T03:05:18;8.95;;;6.13;;
36787;SDS011;22738;45.560;9.434;2022-09-09T03:11:59;9.05;;;5.32;;
36787;SDS011;22738;45.560;9.434;2022-09-09T03:18:42;9.23;;;5.47;;
36787;SDS011;22738;45.560;9.434;2022-09-09T03:25:26;10.68;;;4.60;;
36787;SDS011;22738;45.560;9.434;2022-09-09T03:32:09;11.70;;;4.83;;
36787;SDS011;22738;45.560;9.434;2022-09-09T03:38:52;7.78;;;4.70;;
36787;SDS011;22738;45.560;9.434;2022-09-09T03:52:17;12.13;;;7.20;;
36787;SDS011;22738;45.560;9.434;2022-09-09T03:58:59;11.55;;;7.25;;
36787;SDS011;22738;45.560;9.434;2022-09-09T04:05:41;17.48;;;10.45;;
36787;SDS011;22738;45.560;9.434;2022-09-09T04:12:23;19.45;;;11.60;;
36787;SDS011;22738;45.560;9.434;2022-09-09T04:19:04;31.95;;;18.58;;
36787;SDS011;22738;45.560;9.434;2022-09-09T04:32:32;29.85;;;19.45;;
36787;SDS011;22738;45.560;9.434;2022-09-09T04:39:14;32.90;;;19.02;;
36787;SDS011;22738;45.560;9.434;2022-09-09T04:45:55;34.00;;;19.80;;
36787;SDS011;22738;45.560;9.434;2022-09-09T04:52:39;30.05;;;18.38;;
36787;SDS011;22738;45.560;9.434;2022-09-09T04:59:21;46.15;;;21.95;;
36787;SDS011;22738;45.560;9.434;2022-09-09T05:06:08;32.38;;;19.65;;
36787;SDS011;22738;45.560;9.434;2022-09-09T05:12:52;19.10;;;12.20;;
36787;SDS011;22738;45.560;9.434;2022-09-09T05:19:35;13.55;;;6.82;;
36787;SDS011;22738;45.560;9.434;2022-09-09T05:26:17;11.63;;;5.78;;
36787;SDS011;22738;45.560;9.434;2022-09-09T05:33:03;9.23;;;4.65;;
36787;SDS011;22738;45.560;9.434;2022-09-09T05:39:44;9.52;;;5.45;;
36787;SDS011;22738;45.560;9.434;2022-09-09T05:46:26;7.15;;;4.30;;
36787;SDS011;22738;45.560;9.434;2022-09-09T05:53:08;4.85;;;2.70;;
36787;SDS011;22738;45.560;9.434;2022-09-09T05:59:51;2.00;;;1.10;;
36787;SDS011;22738;45.560;9.434;2022-09-09T06:06:36;1.75;;;0.98;;
36787;SDS011;22738;45.560;9.434;2022-09-09T06:13:25;2.80;;;1.08;;
36787;SDS011;22738;45.560;9.434;2022-09-09T06:20:07;2.78;;;1.15;;
36787;SDS011;22738;45.560;9.434;2022-09-09T06:26:50;6.80;;;1.20;;
36787;SDS011;22738;45.560;9.434;2022-09-09T06:33:36;2.95;;;1.10;;
36787;SDS011;22738;45.560;9.434;2022-09-09T06:40:23;2.15;;;1.27;;
36787;SDS011;22738;45.560;9.434;2022-09-09T06:47:04;5.22;;;1.30;;
36787;SDS011;22738;45.560;9.434;2022-09-09T06:53:49;3.88;;;2.13;;
36787;SDS011;22738;45.560;9.434;2022-09-09T07:00:32;5.30;;;1.77;;
36787;SDS011;22738;45.560;9.434;2022-09-09T07:07:14;2.83;;;0.90;;
36787;SDS011;22738;45.560;9.434;2022-09-09T07:13:56;2.33;;;1.10;;
36787;SDS011;22738;45.560;9.434;2022-09-09T07:20:39;2.38;;;0.80;;
36787;SDS011;22738;45.560;9.434;2022-09-09T07:27:22;1.33;;;0.75;;
36787;SDS011;22738;45.560;9.434;2022-09-09T07:34:05;0.30;;;0.30;;
36787;SDS011;22738;45.560;9.434;2022-09-09T07:40:48;1.45;;;0.68;;
36787;SDS011;22738;45.560;9.434;2022-09-09T07:47:30;2.88;;;0.85;;
36787;SDS011;22738;45.560;9.434;2022-09-09T07:54:14;1.33;;;0.80;;
36787;SDS011;22738;45.560;9.434;2022-09-09T08:00:59;2.08;;;0.90;;
36787;SDS011;22738;45.560;9.434;2022-09-09T08:07:41;0.73;;;0.52;;
36787;SDS011;22738;45.560;9.434;2022-09-09T08:14:22;0.95;;;0.65;;
36787;SDS011;22738;45.560;9.434;2022-09-09T08:21:08;2.03;;;0.90;;
36787;SDS011;22738;45.560;9.434;2022-09-09T08:27:54;1.50;;;0.70;;
36787;SDS011;22738;45.560;9.434;2022-09-09T08:34:36;1.13;;;0.70;;
36787;SDS011;22738;45.560;9.434;2022-09-09T08:55:42;1.50;;;1.00;;
36787;SDS011;22738;45.560;9.434;2022-09-09T09:02:42;2.08;;;1.00;;
36787;SDS011;22738;45.560;9.434;2022-09-09T09:16:51;3.65;;;0.80;;
36787;SDS011;22738;45.560;9.434;2022-09-09T09:23:43;4.63;;;0.68;;
36787;SDS011;22738;45.560;9.434;2022-09-09T09:30:31;1.02;;;0.50;;
36787;SDS011;22738;45.560;9.434;2022-09-09T09:37:29;2.90;;;0.50;;
36787;SDS011;22738;45.560;9.434;2022-09-09T09:51:08;3.03;;;1.27;;
36787;SDS011;22738;45.560;9.434;2022-09-09T09:57:52;2.80;;;0.90;;
36787;SDS011;22738;45.560;9.434;2022-09-09T10:04:37;2.92;;;0.57;;
36787;SDS011;22738;45.560;9.434;2022-09-09T10:39:50;1.10;;;0.50;;
36787;SDS011;22738;45.560;9.434;2022-09-09T10:46:46;1.02;;;0.60;;
36787;SDS011;22738;45.560;9.434;2022-09-09T10:53:52;0.37;;;0.37;;
36787;SDS011;22738;45.560;9.434;2022-09-09T11:00:47;1.05;;;0.50;;
36787;SDS011;22738;45.560;9.434;2022-09-09T11:14:36;1.15;;;0.40;;
36787;SDS011;22738;45.560;9.434;2022-09-09T11:21:24;0.65;;;0.40;;
36787;SDS011;22738;45.560;9.434;2022-09-09T11:35:31;2.83;;;0.80;;
36787;SDS011;22738;45.560;9.434;2022-09-09T11:42:21;0.98;;;0.70;;
36787;SDS011;22738;45.560;9.434;2022-09-09T11:49:05;4.90;;;0.90;;
36787;SDS011;22738;45.560;9.434;2022-09-09T12:02:47;2.17;;;1.00;;
36787;SDS011;22738;45.560;9.434;2022-09-09T12:09:45;1.87;;;0.80;;
36787;SDS011;22738;45.560;9.434;2022-09-09T12:16:36;1.83;;;0.90;;
36787;SDS011;22738;45.560;9.434;2022-09-09T12:23:22;2.47;;;1.10;;
36787;SDS011;22738;45.560;9.434;2022-09-09T12:30:10;2.00;;;1.25;;
36787;SDS011;22738;45.560;9.434;2022-09-09T12:36:56;2.03;;;0.73;;
36787;SDS011;22738;45.560;9.434;2022-09-09T12:43:44;3.38;;;1.15;;
36787;SDS011;22738;45.560;9.434;2022-09-09T12:50:30;1.92;;;1.10;;
36787;SDS011;22738;45.560;9.434;2022-09-09T12:57:18;2.38;;;0.82;;
36787;SDS011;22738;45.560;9.434;2022-09-09T13:04:00;1.20;;;0.90;;
36787;SDS011;22738;45.560;9.434;2022-09-09T13:10:49;1.30;;;0.98;;
36787;SDS011;22738;45.560;9.434;2022-09-09T13:17:37;1.88;;;0.80;;
36787;SDS011;22738;45.560;9.434;2022-09-09T13:24:41;2.15;;;1.17;;
36787;SDS011;22738;45.560;9.434;2022-09-09T13:31:24;3.08;;;1.10;;
36787;SDS011;22738;45.560;9.434;2022-09-09T13:38:09;2.03;;;1.27;;
36787;SDS011;22738;45.560;9.434;2022-09-09T13:44:50;2.00;;;1.02;;
36787;SDS011;22738;45.560;9.434;2022-09-09T13:51:39;2.63;;;0.98;;
36787;SDS011;22738;45.560;9.434;2022-09-09T13:58:23;3.60;;;1.27;;
36787;SDS011;22738;45.560;9.434;2022-09-09T14:05:06;3.38;;;1.27;;
36787;SDS011;22738;45.560;9.434;2022-09-09T14:11:47;2.97;;;0.90;;
36787;SDS011;22738;45.560;9.434;2022-09-09T14:18:28;1.15;;;0.90;;
36787;SDS011;22738;45.560;9.434;2022-09-09T14:25:09;1.50;;;0.85;;
36787;SDS011;22738;45.560;9.434;2022-09-09T14:31:51;1.40;;;0.85;;
36787;SDS011;22738;45.560;9.434;2022-09-09T14:38:34;2.13;;;1.20;;
36787;SDS011;22738;45.560;9.434;2022-09-09T14:45:20;1.50;;;1.10;;
36787;SDS011;22738;45.560;9.434;2022-09-09T14:52:03;1.92;;;1.05;;
36787;SDS011;22738;45.560;9.434;2022-09-09T14:58:45;1.95;;;1.10;;
36787;SDS011;22738;45.560;9.434;2022-09-09T15:05:27;2.75;;;0.93;;
36787;SDS011;22738;45.560;9.434;2022-09-09T15:12:08;1.77;;;1.30;;
36787;SDS011;22738;45.560;9.434;2022-09-09T15:18:50;2.10;;;1.10;;
36787;SDS011;22738;45.560;9.434;2022-09-09T15:25:34;1.63;;;1.00;;
36787;SDS011;22738;45.560;9.434;2022-09-09T15:32:15;1.02;;;0.93;;
36787;SDS011;22738;45.560;9.434;2022-09-09T15:38:57;4.03;;;1.10;;
36787;SDS011;22738;45.560;9.434;2022-09-09T15:45:39;3.78;;;1.27;;
36787;SDS011;22738;45.560;9.434;2022-09-09T15:52:20;4.72;;;1.33;;
36787;SDS011;22738;45.560;9.434;2022-09-09T15:59:02;10.77;;;1.40;;
36787;SDS011;22738;45.560;9.434;2022-09-09T16:05:44;1.53;;;0.90;;
36787;SDS011;22738;45.560;9.434;2022-09-09T16:12:25;1.48;;;1.05;;
36787;SDS011;22738;45.560;9.434;2022-09-09T16:19:07;1.80;;;0.90;;
36787;SDS011;22738;45.560;9.434;2022-09-09T16:25:54;1.88;;;1.10;;
36787;SDS011;22738;45.560;9.434;2022-09-09T16:32:36;1.02;;;0.98;;
36787;SDS011;22738;45.560;9.434;2022-09-09T16:39:18;2.78;;;1.38;;
36787;SDS011;22738;45.560;9.434;2022-09-09T16:46:00;2.58;;;1.30;;
36787;SDS011;22738;45.560;9.434;2022-09-09T16:52:41;7.82;;;1.45;;
36787;SDS011;22738;45.560;9.434;2022-09-09T16:59:24;4.47;;;1.40;;
36787;SDS011;22738;45.560;9.434;2022-09-09T17:06:12;3.30;;;1.48;;
36787;SDS011;22738;45.560;9.434;2022-09-09T17:12:55;2.85;;;1.00;;
36787;SDS011;22738;45.560;9.434;2022-09-09T17:19:37;3.38;;;1.20;;
36787;SDS011;22738;45.560;9.434;2022-09-09T17:26:21;1.98;;;1.10;;
36787;SDS011;22738;45.560;9.434;2022-09-09T17:33:04;3.58;;;1.30;;
36787;SDS011;22738;45.560;9.434;2022-09-09T17:39:46;1.75;;;1.00;;
36787;SDS011;22738;45.560;9.434;2022-09-09T17:46:28;1.83;;;1.13;;
36787;SDS011;22738;45.560;9.434;2022-09-09T17:53:14;3.10;;;1.00;;
36787;SDS011;22738;45.560;9.434;2022-09-09T17:59:56;4.07;;;1.50;;
36787;SDS011;22738;45.560;9.434;2022-09-09T18:06:38;5.72;;;1.85;;
36787;SDS011;22738;45.560;9.434;2022-09-09T18:13:21;3.55;;;1.73;;
36787;SDS011;22738;45.560;9.434;2022-09-09T18:20:02;6.65;;;1.58;;
36787;SDS011;22738;45.560;9.434;2022-09-09T18:26:43;3.38;;;1.83;;
36787;SDS011;22738;45.560;9.434;2022-09-09T18:33:25;2.67;;;1.75;;
36787;SDS011;22738;45.560;9.434;2022-09-09T18:40:06;7.18;;;1.92;;
36787;SDS011;22738;45.560;9.434;2022-09-09T18:46:47;4.22;;;2.08;;
36787;SDS011;22738;45.560;9.434;2022-09-09T18:53:29;4.28;;;1.90;;
36787;SDS011;22738;45.560;9.434;2022-09-09T19:00:10;3.25;;;1.90;;
36787;SDS011;22738;45.560;9.434;2022-09-09T19:06:52;3.17;;;1.65;;
36787;SDS011;22738;45.560;9.434;2022-09-09T19:13:37;3.88;;;2.00;;
36787;SDS011;22738;45.560;9.434;2022-09-09T19:20:19;4.78;;;2.47;;
36787;SDS011;22738;45.560;9.434;2022-09-09T19:27:04;3.85;;;2.25;;
36787;SDS011;22738;45.560;9.434;2022-09-09T19:33:46;5.40;;;3.07;;
36787;SDS011;22738;45.560;9.434;2022-09-09T19:40:29;10.95;;;3.00;;
36787;SDS011;22738;45.560;9.434;2022-09-09T19:47:10;5.20;;;2.50;;
36787;SDS011;22738;45.560;9.434;2022-09-09T19:53:54;8.82;;;4.45;;
36787;SDS011;22738;45.560;9.434;2022-09-09T20:00:44;11.45;;;5.43;;
36787;SDS011;22738;45.560;9.434;2022-09-09T20:07:25;7.20;;;3.80;;
36787;SDS011;22738;45.560;9.434;2022-09-09T20:14:06;10.15;;;4.38;;
36787;SDS011;22738;45.560;9.434;2022-09-09T20:20:47;5.72;;;3.55;;
36787;SDS011;22738;45.560;9.434;2022-09-09T20:27:29;8.02;;;3.70;;
36787;SDS011;22738;45.560;9.434;2022-09-09T20:34:12;8.18;;;3.35;;
36787;SDS011;22738;45.560;9.434;2022-09-09T20:47:36;6.43;;;3.33;;
36787;SDS011;22738;45.560;9.434;2022-09-09T20:54:19;9.70;;;3.63;;
36787;SDS011;22738;45.560;9.434;2022-09-09T21:01:03;5.57;;;3.33;;
36787;SDS011;22738;45.560;9.434;2022-09-09T21:07:47;9.13;;;2.72;;
36787;SDS011;22738;45.560;9.434;2022-09-09T21:14:28;12.32;;;3.83;;
36787;SDS011;22738;45.560;9.434;2022-09-09T21:21:09;6.63;;;3.55;;
36787;SDS011;22738;45.560;9.434;2022-09-09T21:27:50;5.60;;;3.60;;
36787;SDS011;22738;45.560;9.434;2022-09-09T21:34:33;10.93;;;4.20;;
36787;SDS011;22738;45.560;9.434;2022-09-09T21:41:15;5.47;;;3.33;;
36787;SDS011;22738;45.560;9.434;2022-09-09T21:47:57;5.82;;;3.72;;
36787;SDS011;22738;45.560;9.434;2022-09-09T21:54:38;4.72;;;2.95;;
36787;SDS011;22738;45.560;9.434;2022-09-09T22:01:22;5.80;;;2.67;;
36787;SDS011;22738;45.560;9.434;2022-09-09T22:08:07;5.43;;;2.60;;
36787;SDS011;22738;45.560;9.434;2022-09-09T22:14:49;7.68;;;2.75;;
36787;SDS011;22738;45.560;9.434;2022-09-09T22:21:32;26.27;;;4.57;;
36787;SDS011;22738;45.560;9.434;2022-09-09T22:28:13;5.72;;;3.00;;
36787;SDS011;22738;45.560;9.434;2022-09-09T22:34:55;4.40;;;3.33;;
36787;SDS011;22738;45.560;9.434;2022-09-09T22:41:36;7.50;;;3.80;;
36787;SDS011;22738;45.560;9.434;2022-09-09T22:48:17;7.60;;;3.78;;
36787;SDS011;22738;45.560;9.434;2022-09-09T22:54:58;6.10;;;4.30;;
36787;SDS011;22738;45.560;9.434;2022-09-09T23:01:40;5.82;;;4.05;;
36787;SDS011;22738;45.560;9.434;2022-09-09T23:08:22;5.38;;;3.67;;
36787;SDS011;22738;45.560;9.434;2022-09-09T23:15:08;7.75;;;5.20;;
36787;SDS011;22738;45.560;9.434;2022-09-09T23:21:49;7.00;;;5.40;;
36787;SDS011;22738;45.560;9.434;2022-09-09T23:28:31;10.90;;;5.40;;
36787;SDS011;22738;45.560;9.434;2022-09-09T23:41:55;19.45;;;7.63;;
36787;SDS011;22738;45.560;9.434;2022-09-09T23:48:37;13.05;;;5.18;;
36787;SDS011;22738;45.560;9.434;2022-09-09T23:55:19;13.32;;;5.28;;
